Time;durP1;ratioP1;P1;durP2;ratioP2;P2;SDS_P1;SDS_P2;PMS_P1;PMS_P2;Temp;Humidity;BMP_temperature;BMP_pressure;BME280_temperature;BME280_humidity;BME280_pressure;Samples;Min_cycle;Max_cycle;Signal;HPM_P1;HPM_P2
2022/08/30 00:01:28;;;;;;;;;;;24.20;84.00;;;;;;5057574;28;20345;-95
2022/08/30 00:03:54;;;;;;;;;;;24.20;85.10;;;;;;5057508;28;19943;-96
2022/08/30 00:06:21;;;;;;;;;;;24.20;85.60;;;;;;5057713;28;20026;-96
2022/08/30 00:08:47;;;;;;;;;;;24.20;85.70;;;;;;5057459;28;19946;-96
2022/08/30 00:11:14;;;;;;;;;;;24.10;86.20;;;;;;5057340;28;20362;-96
2022/08/30 00:13:41;;;;;;;;;;;24.10;86.70;;;;;;5057009;28;19971;-96
2022/08/30 00:16:07;;;;;;;;;;;24.10;86.80;;;;;;5057540;28;19988;-96
2022/08/30 00:18:33;;;;;;;;;;;24.00;86.90;;;;;;5056639;28;19972;-96
2022/08/30 00:20:59;;;;;;;;;;;23.90;86.90;;;;;;5057512;28;19952;-96
2022/08/30 00:23:25;;;;;;;;;;;23.90;87.40;;;;;;5057129;28;20411;-96
2022/08/30 00:25:51;;;;;;;;;;;23.90;87.30;;;;;;5057087;28;19944;-96
2022/08/30 00:28:16;;;;;;;;;;;23.90;86.90;;;;;;5055434;28;19952;-96
2022/08/30 00:30:42;;;;;;;;;;;23.90;86.60;;;;;;5057210;28;19944;-96
2022/08/30 00:33:09;;;;;;;;;;;23.90;86.70;;;;;;5056956;28;20026;-96
2022/08/30 00:35:34;;;;;;;;;;;24.10;86.50;;;;;;5057137;28;19993;-96
2022/08/30 00:38:00;;;;;;;;;;;24.10;86.10;;;;;;5056766;28;19961;-96
2022/08/30 00:40:27;;;;;;;;;;;24.10;85.90;;;;;;5056521;28;19945;-96
2022/08/30 00:42:54;;;;;;;;;;;24.20;86.50;;;;;;5056758;28;19942;-96
2022/08/30 00:45:21;;;;;;;;;;;24.20;86.90;;;;;;5056710;28;19939;-96
2022/08/30 00:47:47;;;;;;;;;;;24.20;86.80;;;;;;5056661;28;19944;-96
2022/08/30 00:50:14;;;;;;;;;;;24.00;87.20;;;;;;5055826;28;20407;-96
2022/08/30 00:52:41;;;;;;;;;;;24.00;87.50;;;;;;5056625;28;19953;-96
2022/08/30 00:55:07;;;;;;;;;;;24.00;87.60;;;;;;5056305;28;20031;-96
2022/08/30 00:57:34;;;;;;;;;;;24.00;87.50;;;;;;5056252;28;20411;-96
2022/08/30 01:00:00;;;;;;;;;;;24.00;87.10;;;;;;5056132;28;19946;-96
2022/08/30 01:02:27;;;;;;;;;;;24.00;87.00;;;;;;5056430;28;19989;-96
2022/08/30 01:04:54;;;;;;;;;;;24.00;86.90;;;;;;5056356;28;19962;-95
2022/08/30 01:07:19;;;;;;;;;;;24.00;86.60;;;;;;5056319;28;20002;-96
2022/08/30 01:09:45;;;;;;;;;;;24.00;86.30;;;;;;5054766;28;19974;-96
2022/08/30 01:12:11;;;;;;;;;;;24.00;86.20;;;;;;5056486;28;20021;-96
2022/08/30 01:14:37;;;;;;;;;;;24.00;86.10;;;;;;5056164;28;19947;-96
2022/08/30 01:17:04;;;;;;;;;;;24.00;85.90;;;;;;5056055;28;19972;-96
2022/08/30 01:19:48;;;;;;;;;;;24.10;85.80;;;;;;5056395;28;19944;-96
2022/08/30 01:22:29;;;;;;;;;;;24.00;85.70;;;;;;5055763;28;19946;-96
2022/08/30 01:24:56;;;;;;;;;;;24.00;85.90;;;;;;5056060;28;19933;-96
2022/08/30 01:27:22;;;;;;;;;;;23.90;86.20;;;;;;5055942;28;19940;-96
2022/08/30 01:29:49;;;;;;;;;;;23.90;85.60;;;;;;5055909;28;20027;-96
2022/08/30 01:32:17;;;;;;;;;;;23.90;86.10;;;;;;5055565;28;20010;-96
2022/08/30 01:34:44;;;;;;;;;;;24.00;85.60;;;;;;5055775;28;19947;-96
2022/08/30 01:37:09;;;;;;;;;;;23.90;85.40;;;;;;5055326;28;20021;-96
2022/08/30 01:39:35;;;;;;;;;;;23.90;85.20;;;;;;5055940;28;19936;-96
2022/08/30 01:42:01;;;;;;;;;;;24.00;85.30;;;;;;5055631;28;19946;-96
2022/08/30 01:44:27;;;;;;;;;;;24.00;85.30;;;;;;5055598;28;19951;-96
2022/08/30 01:46:53;;;;;;;;;;;24.00;85.70;;;;;;5055230;28;20025;-96
2022/08/30 01:49:19;;;;;;;;;;;24.00;85.50;;;;;;5055504;28;19947;-95
2022/08/30 01:51:44;;;;;;;;;;;24.00;85.20;;;;;;5055217;28;19938;-96
2022/08/30 01:54:11;;;;;;;;;;;24.00;85.50;;;;;;5055722;28;19940;-96
2022/08/30 01:56:36;;;;;;;;;;;24.00;85.10;;;;;;5055041;28;19941;-96
2022/08/30 01:59:02;;;;;;;;;;;24.00;85.50;;;;;;5054990;28;20413;-95
2022/08/30 02:01:29;;;;;;;;;;;24.00;85.60;;;;;;5054493;28;19939;-96
2022/08/30 02:03:55;;;;;;;;;;;24.10;85.10;;;;;;5054839;28;20044;-96
2022/08/30 02:06:21;;;;;;;;;;;24.00;84.80;;;;;;5055197;28;19944;-95
2022/08/30 02:08:47;;;;;;;;;;;24.00;85.00;;;;;;5054856;28;20400;-95
2022/08/30 02:11:13;;;;;;;;;;;24.00;85.30;;;;;;5055126;28;20032;-96
2022/08/30 02:13:39;;;;;;;;;;;24.00;85.30;;;;;;5055103;28;19956;-95
2022/08/30 02:16:06;;;;;;;;;;;24.00;84.80;;;;;;5053468;28;20405;-96
2022/08/30 02:18:33;;;;;;;;;;;24.00;84.70;;;;;;5054472;28;20048;-96
2022/08/30 02:20:59;;;;;;;;;;;23.90;84.50;;;;;;5054919;28;19958;-96
2022/08/30 02:23:25;;;;;;;;;;;23.90;84.60;;;;;;5054597;28;19947;-96
2022/08/30 02:25:51;;;;;;;;;;;23.90;84.90;;;;;;5055110;28;20298;-96
2022/08/30 02:28:18;;;;;;;;;;;24.00;85.10;;;;;;5054484;28;19936;-96
2022/08/30 02:30:44;;;;;;;;;;;24.00;85.20;;;;;;5054753;28;19936;-95
2022/08/30 02:33:10;;;;;;;;;;;24.00;85.40;;;;;;5053090;28;19993;-96
2022/08/30 02:35:36;;;;;;;;;;;24.00;85.50;;;;;;5054571;28;19975;-96
2022/08/30 02:38:01;;;;;;;;;;;24.00;86.30;;;;;;5054587;28;19957;-96
2022/08/30 02:40:27;;;;;;;;;;;24.00;86.20;;;;;;5054300;28;19943;-96
2022/08/30 02:42:52;;;;;;;;;;;24.00;86.10;;;;;;5054586;28;20318;-96
2022/08/30 02:45:18;;;;;;;;;;;23.90;86.30;;;;;;5054273;28;20424;-96
2022/08/30 02:47:43;;;;;;;;;;;23.90;86.70;;;;;;5054573;28;20334;-96
2022/08/30 02:50:09;;;;;;;;;;;23.80;86.70;;;;;;5054176;28;20383;-95
2022/08/30 02:52:35;;;;;;;;;;;23.80;86.40;;;;;;5054727;28;20311;-95
2022/08/30 02:55:02;;;;;;;;;;;23.80;86.20;;;;;;5054404;28;19993;-95
2022/08/30 02:57:27;;;;;;;;;;;23.70;86.30;;;;;;5054359;28;19978;-96
2022/08/30 02:59:53;;;;;;;;;;;23.70;86.20;;;;;;5053904;28;20397;-96
2022/08/30 03:02:21;;;;;;;;;;;23.70;85.90;;;;;;5053037;28;20432;-94
2022/08/30 03:04:47;;;;;;;;;;;23.70;86.00;;;;;;5052685;28;20401;-96
2022/08/30 03:07:13;;;;;;;;;;;23.60;86.10;;;;;;5052645;28;19945;-96
2022/08/30 03:09:39;;;;;;;;;;;23.60;86.10;;;;;;5054161;28;19944;-96
2022/08/30 03:12:06;;;;;;;;;;;23.50;85.70;;;;;;5053698;28;19944;-96
2022/08/30 03:14:34;;;;;;;;;;;23.50;84.60;;;;;;5054198;28;20020;-95
2022/08/30 03:17:00;;;;;;;;;;;23.50;84.30;;;;;;5053809;28;19971;-96
2022/08/30 03:19:26;;;;;;;;;;;23.50;84.10;;;;;;5054039;28;20312;-96
2022/08/30 03:21:51;;;;;;;;;;;23.50;83.90;;;;;;5053871;28;19942;-96
2022/08/30 03:24:17;;;;;;;;;;;23.50;83.80;;;;;;5054011;28;20413;-96
2022/08/30 03:26:43;;;;;;;;;;;23.50;83.80;;;;;;5053711;28;20309;-96
2022/08/30 03:29:08;;;;;;;;;;;23.50;83.80;;;;;;5054259;28;19995;-96
2022/08/30 03:31:34;;;;;;;;;;;23.50;83.90;;;;;;5053617;28;19940;-96
2022/08/30 03:34:00;;;;;;;;;;;23.40;84.00;;;;;;5053951;28;19948;-96
2022/08/30 03:36:26;;;;;;;;;;;23.40;83.90;;;;;;5053835;28;19954;-96
2022/08/30 03:38:51;;;;;;;;;;;23.40;83.80;;;;;;5054083;28;20056;-96
2022/08/30 03:41:17;;;;;;;;;;;23.40;83.60;;;;;;5053869;28;19945;-96
2022/08/30 03:43:45;;;;;;;;;;;23.40;83.60;;;;;;5054101;28;19951;-96
2022/08/30 03:46:11;;;;;;;;;;;23.40;83.60;;;;;;5053503;28;20451;-96
2022/08/30 03:48:36;;;;;;;;;;;23.50;83.30;;;;;;5053838;28;19945;-95
2022/08/30 03:51:02;;;;;;;;;;;23.50;83.00;;;;;;5053496;28;19941;-96
2022/08/30 03:53:27;;;;;;;;;;;23.60;82.70;;;;;;5054103;28;19939;-96
2022/08/30 03:55:54;;;;;;;;;;;23.70;83.00;;;;;;5053400;28;19934;-96
2022/08/30 03:58:19;;;;;;;;;;;23.70;82.60;;;;;;5053423;28;20433;-96
2022/08/30 04:00:45;;;;;;;;;;;23.70;82.60;;;;;;5053663;28;19942;-96
2022/08/30 04:03:10;;;;;;;;;;;23.60;83.20;;;;;;5053384;28;20509;-96
2022/08/30 04:05:36;;;;;;;;;;;23.40;84.20;;;;;;5053599;28;19940;-95
2022/08/30 04:08:02;;;;;;;;;;;23.20;84.90;;;;;;5053352;28;19965;-96
2022/08/30 04:10:28;;;;;;;;;;;23.10;85.00;;;;;;5053610;28;19940;-96
2022/08/30 04:12:53;;;;;;;;;;;23.00;84.80;;;;;;5053214;28;20397;-96
2022/08/30 04:15:19;;;;;;;;;;;22.90;84.80;;;;;;5054298;28;19946;-96
2022/08/30 04:17:45;;;;;;;;;;;22.90;85.00;;;;;;5052922;28;19980;-96
2022/08/30 04:20:10;;;;;;;;;;;22.90;85.20;;;;;;5051958;28;20042;-95
2022/08/30 04:22:36;;;;;;;;;;;22.90;85.20;;;;;;5053470;28;20036;-96
2022/08/30 04:25:02;;;;;;;;;;;22.90;85.50;;;;;;5054857;28;19981;-96
2022/08/30 04:27:28;;;;;;;;;;;22.90;85.80;;;;;;5057101;28;20015;-96
2022/08/30 04:29:55;;;;;;;;;;;22.90;86.00;;;;;;5055503;28;19948;-96
2022/08/30 04:32:20;;;;;;;;;;;22.80;86.20;;;;;;5056711;28;19948;-96
2022/08/30 04:34:46;;;;;;;;;;;22.90;86.50;;;;;;5057001;28;19947;-95
2022/08/30 04:37:12;;;;;;;;;;;22.90;86.80;;;;;;5055224;28;20051;-95
2022/08/30 04:39:38;;;;;;;;;;;22.90;87.10;;;;;;5057197;28;19946;-95
2022/08/30 04:42:03;;;;;;;;;;;23.10;86.90;;;;;;5056842;28;20420;-96
2022/08/30 04:44:30;;;;;;;;;;;23.10;87.10;;;;;;5056804;28;19958;-96
2022/08/30 04:46:55;;;;;;;;;;;23.10;87.10;;;;;;5056479;28;20032;-96
2022/08/30 04:49:21;;;;;;;;;;;23.20;86.60;;;;;;5056677;28;19977;-96
2022/08/30 04:51:47;;;;;;;;;;;23.10;86.60;;;;;;5056440;28;19946;-96
2022/08/30 04:54:13;;;;;;;;;;;23.20;86.80;;;;;;5056631;28;19942;-96
2022/08/30 04:56:38;;;;;;;;;;;23.20;86.60;;;;;;5056142;28;19990;-96
2022/08/30 04:59:04;;;;;;;;;;;23.10;86.40;;;;;;5056133;28;20468;-96
2022/08/30 05:01:30;;;;;;;;;;;23.00;86.40;;;;;;5056243;28;20406;-96
2022/08/30 05:03:57;;;;;;;;;;;23.10;86.70;;;;;;5056372;28;19988;-96
2022/08/30 05:06:24;;;;;;;;;;;23.10;87.20;;;;;;5056213;28;19940;-96
2022/08/30 05:08:50;;;;;;;;;;;23.10;87.00;;;;;;5056149;28;19942;-96
2022/08/30 05:11:17;;;;;;;;;;;23.00;86.90;;;;;;5056168;28;19984;-96
2022/08/30 05:13:42;;;;;;;;;;;23.00;86.90;;;;;;5056051;28;19936;-96
2022/08/30 05:16:08;;;;;;;;;;;23.00;87.00;;;;;;5056447;28;19985;-96
2022/08/30 05:18:34;;;;;;;;;;;23.10;87.20;;;;;;5055899;28;19976;-96
2022/08/30 05:21:04;;;;;;;;;;;23.10;86.90;;;;;;5056032;28;20173;-96
2022/08/30 05:23:29;;;;;;;;;;;23.10;86.70;;;;;;5056061;28;19937;-96
2022/08/30 05:25:55;;;;;;;;;;;23.20;86.40;;;;;;5056383;28;19945;-96
2022/08/30 05:28:20;;;;;;;;;;;23.20;85.90;;;;;;5055722;28;19938;-96
2022/08/30 05:30:46;;;;;;;;;;;23.20;85.80;;;;;;5055746;28;20025;-96
2022/08/30 05:33:12;;;;;;;;;;;23.20;86.30;;;;;;5055105;28;19984;-96
2022/08/30 05:35:37;;;;;;;;;;;23.20;86.60;;;;;;5056349;28;19938;-96
2022/08/30 05:39:45;;;;;;;;;;;23.20;86.70;;;;;;5030763;28;19950;-96
2022/08/30 05:42:11;;;;;;;;;;;23.30;85.90;;;;;;5030512;27;20050;-96
2022/08/30 05:44:37;;;;;;;;;;;23.30;85.60;;;;;;5032134;28;19998;-96
2022/08/30 05:47:02;;;;;;;;;;;23.30;85.20;;;;;;5031977;28;19939;-96
2022/08/30 05:49:28;;;;;;;;;;;23.30;85.10;;;;;;5030841;28;19942;-96
2022/08/30 05:51:54;;;;;;;;;;;23.30;84.90;;;;;;5028785;28;19937;-96
2022/08/30 05:54:19;;;;;;;;;;;23.20;84.60;;;;;;5028660;28;19942;-96
2022/08/30 05:56:45;;;;;;;;;;;23.20;84.90;;;;;;5028877;28;19936;-96
2022/08/30 05:59:11;;;;;;;;;;;23.00;85.10;;;;;;5029237;28;20487;-96
2022/08/30 06:01:38;;;;;;;;;;;23.00;85.70;;;;;;5029492;28;19942;-96
2022/08/30 06:04:05;;;;;;;;;;;23.00;85.90;;;;;;5028312;28;20415;-96
2022/08/30 06:06:31;;;;;;;;;;;23.00;85.80;;;;;;5029890;28;19945;-96
2022/08/30 06:08:57;;;;;;;;;;;22.90;85.30;;;;;;5027558;28;19954;-96
2022/08/30 06:11:23;;;;;;;;;;;22.90;84.90;;;;;;5027607;28;19936;-96
2022/08/30 06:13:49;;;;;;;;;;;22.90;85.10;;;;;;5027736;28;19942;-96
2022/08/30 06:16:16;;;;;;;;;;;22.80;85.60;;;;;;5027245;28;19941;-96
2022/08/30 06:18:42;;;;;;;;;;;22.70;87.40;;;;;;5025822;28;20363;-96
2022/08/30 06:21:07;;;;;;;;;;;22.60;86.60;;;;;;5026043;28;19972;-96
2022/08/30 06:23:33;;;;;;;;;;;22.50;86.50;;;;;;5027212;28;20321;-95
2022/08/30 06:26:03;;;;;;;;;;;22.50;87.00;;;;;;5027584;28;19952;-96
2022/08/30 06:28:29;;;;;;;;;;;22.50;87.50;;;;;;5027383;28;20293;-96
2022/08/30 06:30:55;;;;;;;;;;;22.60;87.70;;;;;;5027378;28;20381;-96
2022/08/30 06:33:20;;;;;;;;;;;22.70;87.50;;;;;;5027434;28;19942;-96
2022/08/30 06:35:46;;;;;;;;;;;22.80;87.30;;;;;;5027591;28;20400;-96
2022/08/30 06:38:12;;;;;;;;;;;22.80;86.80;;;;;;5034360;28;20507;-96
2022/08/30 06:40:37;;;;;;;;;;;22.90;86.40;;;;;;5047007;28;19940;-96
2022/08/30 06:43:03;;;;;;;;;;;22.90;85.80;;;;;;5046895;28;20036;-96
2022/08/30 06:45:29;;;;;;;;;;;23.00;85.40;;;;;;5047023;28;19975;-96
2022/08/30 06:47:56;;;;;;;;;;;23.10;85.60;;;;;;5045640;28;19972;-96
2022/08/30 06:50:24;;;;;;;;;;;23.00;85.40;;;;;;5036549;28;20038;-95
2022/08/30 06:52:50;;;;;;;;;;;23.00;85.40;;;;;;5033986;28;20403;-96
2022/08/30 06:55:16;;;;;;;;;;;23.00;84.90;;;;;;5033409;28;20038;-96
2022/08/30 06:57:42;;;;;;;;;;;23.00;84.60;;;;;;5031584;28;19965;-96
2022/08/30 07:01:25;;;;;;;;;;;23.10;84.60;;;;;;5032262;28;19950;-96
2022/08/30 07:03:51;;;;;;;;;;;23.20;84.50;;;;;;5033031;28;19948;-96
2022/08/30 07:06:17;;;;;;;;;;;23.30;84.30;;;;;;5031573;28;20032;-97
2022/08/30 07:08:43;;;;;;;;;;;23.30;84.40;;;;;;5032009;28;19940;-96
2022/08/30 07:11:09;;;;;;;;;;;23.50;83.90;;;;;;5032008;28;20386;-96
2022/08/30 07:13:35;;;;;;;;;;;23.50;83.40;;;;;;5030728;28;19939;-96
2022/08/30 07:16:13;;;;;;;;;;;23.50;83.30;;;;;;5030868;28;19946;-96
2022/08/30 07:18:54;;;;;;;;;;;23.60;83.30;;;;;;5030211;28;19943;-96
2022/08/30 07:21:39;;;;;;;;;;;23.60;81.50;;;;;;5030144;28;19945;-96
2022/08/30 07:24:05;;;;;;;;;;;23.70;81.20;;;;;;5030991;28;20093;-96
2022/08/30 07:26:32;;;;;;;;;;;23.80;80.40;;;;;;5029770;28;20487;-96
2022/08/30 07:28:58;;;;;;;;;;;24.00;80.50;;;;;;5029951;28;19937;-96
2022/08/30 07:31:24;;;;;;;;;;;24.20;79.70;;;;;;5026902;28;19948;-96
2022/08/30 07:33:50;;;;;;;;;;;24.20;79.10;;;;;;5028766;28;20035;-96
2022/08/30 07:36:16;;;;;;;;;;;24.20;79.20;;;;;;5029649;28;20005;-96
2022/08/30 07:38:42;;;;;;;;;;;24.30;80.00;;;;;;5029362;28;20032;-96
2022/08/30 07:41:08;;;;;;;;;;;24.40;79.40;;;;;;5029653;27;19964;-96
2022/08/30 07:43:35;;;;;;;;;;;24.40;78.00;;;;;;5029544;27;20060;-96
2022/08/30 07:46:02;;;;;;;;;;;24.50;78.30;;;;;;5029239;28;20003;-96
2022/08/30 07:48:27;;;;;;;;;;;24.50;78.20;;;;;;5029414;28;19991;-96
2022/08/30 07:50:53;;;;;;;;;;;24.60;76.60;;;;;;5028623;28;19952;-96
2022/08/30 07:53:18;;;;;;;;;;;24.70;75.90;;;;;;5028321;28;20040;-96
2022/08/30 07:55:44;;;;;;;;;;;24.80;74.70;;;;;;5027909;28;19979;-96
2022/08/30 07:58:09;;;;;;;;;;;24.90;73.70;;;;;;5027557;28;20076;-96
2022/08/30 08:00:35;;;;;;;;;;;25.00;74.40;;;;;;5042092;28;19980;-96
2022/08/30 08:03:06;;;;;;;;;;;25.10;72.20;;;;;;5047112;28;19947;-96
2022/08/30 08:05:35;;;;;;;;;;;25.20;72.20;;;;;;5047330;28;20032;-96
2022/08/30 08:08:00;;;;;;;;;;;25.30;72.00;;;;;;5046810;28;19946;-96
2022/08/30 08:10:26;;;;;;;;;;;25.40;71.50;;;;;;5045385;28;19940;-96
2022/08/30 08:12:51;;;;;;;;;;;25.60;70.30;;;;;;5033018;28;19941;-96
2022/08/30 08:15:17;;;;;;;;;;;25.60;69.70;;;;;;5031666;28;19950;-96
2022/08/30 08:17:42;;;;;;;;;;;25.60;70.00;;;;;;5033347;28;20375;-96
2022/08/30 08:20:08;;;;;;;;;;;25.70;70.00;;;;;;5033242;28;19962;-96
2022/08/30 08:22:34;;;;;;;;;;;25.80;69.80;;;;;;5033224;28;19954;-96
2022/08/30 08:25:00;;;;;;;;;;;25.80;68.90;;;;;;5033346;28;19941;-96
2022/08/30 08:27:25;;;;;;;;;;;25.90;69.20;;;;;;5033427;28;19944;-96
2022/08/30 08:29:51;;;;;;;;;;;26.00;69.30;;;;;;5032194;28;19946;-96
2022/08/30 08:32:16;;;;;;;;;;;26.00;69.00;;;;;;5033687;28;19968;-96
2022/08/30 08:34:42;;;;;;;;;;;26.00;69.30;;;;;;5033267;28;19944;-96
2022/08/30 08:37:07;;;;;;;;;;;26.00;69.60;;;;;;5033401;28;20052;-96
2022/08/30 08:39:33;;;;;;;;;;;26.00;69.60;;;;;;5033065;28;20064;-96
2022/08/30 08:42:04;;;;;;;;;;;26.00;69.30;;;;;;5032998;28;19948;-96
2022/08/30 08:44:49;;;;;;;;;;;26.10;69.10;;;;;;5033108;28;19946;-96
2022/08/30 08:47:16;;;;;;;;;;;26.10;69.00;;;;;;5031610;28;20396;-96
2022/08/30 08:49:44;;;;;;;;;;;26.20;68.90;;;;;;5032843;28;19945;-96
2022/08/30 08:55:08;;;;;;;;;;;26.60;66.30;;;;;;5032667;28;20477;-96
2022/08/30 08:57:34;;;;;;;;;;;26.80;66.00;;;;;;5032932;28;19958;-96
2022/08/30 09:00:02;;;;;;;;;;;26.90;65.90;;;;;;5032388;28;20062;-96
2022/08/30 09:02:36;;;;;;;;;;;27.00;64.80;;;;;;5033269;28;19940;-96
2022/08/30 09:05:02;;;;;;;;;;;27.10;63.70;;;;;;5032659;28;19943;-96
2022/08/30 09:07:38;;;;;;;;;;;27.10;64.60;;;;;;5032647;28;19970;-96
2022/08/30 09:10:05;;;;;;;;;;;27.20;63.70;;;;;;5033280;28;19945;-96
2022/08/30 09:12:30;;;;;;;;;;;27.40;65.90;;;;;;5031205;28;19945;-96
2022/08/30 09:15:25;;;;;;;;;;;27.50;64.70;;;;;;5032759;28;19936;-96
2022/08/30 09:17:51;;;;;;;;;;;27.70;63.40;;;;;;5031961;28;20014;-96
2022/08/30 09:20:44;;;;;;;;;;;27.70;62.80;;;;;;5033036;28;20426;-96
2022/08/30 09:23:31;;;;;;;;;;;27.80;62.00;;;;;;5033746;28;20386;-96
2022/08/30 09:25:59;;;;;;;;;;;27.80;62.60;;;;;;5033263;28;19936;-96
2022/08/30 09:28:26;;;;;;;;;;;27.90;64.00;;;;;;5032805;28;19979;-96
2022/08/30 09:31:21;;;;;;;;;;;28.10;62.40;;;;;;5033407;28;19978;-96
2022/08/30 09:34:06;;;;;;;;;;;28.20;63.80;;;;;;5045614;28;20026;-96
2022/08/30 09:36:39;;;;;;;;;;;28.40;61.90;;;;;;5032859;28;19987;-96
2022/08/30 09:39:13;;;;;;;;;;;28.50;61.80;;;;;;5032936;28;19947;-96
2022/08/30 09:41:41;;;;;;;;;;;28.50;63.50;;;;;;5033401;28;19951;-96
2022/08/30 09:44:13;;;;;;;;;;;28.70;60.80;;;;;;5033089;28;19942;-96
2022/08/30 09:46:43;;;;;;;;;;;28.80;60.20;;;;;;5033828;28;19940;-96
2022/08/30 09:49:28;;;;;;;;;;;28.90;61.80;;;;;;5033707;28;19946;-96
2022/08/30 09:52:15;;;;;;;;;;;28.90;60.80;;;;;;5031976;28;19947;-96
2022/08/30 09:54:45;;;;;;;;;;;28.90;58.80;;;;;;5032553;28;19939;-96
2022/08/30 09:57:22;;;;;;;;;;;28.90;62.40;;;;;;5032596;28;19937;-96
2022/08/30 10:00:00;;;;;;;;;;;28.70;61.50;;;;;;5028966;28;19987;-96
2022/08/30 10:02:31;;;;;;;;;;;28.70;61.40;;;;;;5031692;28;19938;-96
2022/08/30 10:05:03;;;;;;;;;;;28.60;60.80;;;;;;5031756;28;19938;-96
2022/08/30 10:07:44;;;;;;;;;;;28.50;61.60;;;;;;5031499;28;19944;-96
2022/08/30 10:10:14;;;;;;;;;;;28.60;60.00;;;;;;5031223;28;20040;-96
2022/08/30 10:12:53;;;;;;;;;;;28.40;59.10;;;;;;5031657;28;19964;-96
2022/08/30 10:15:24;;;;;;;;;;;28.30;60.50;;;;;;5031468;28;19987;-96
2022/08/30 10:17:55;;;;;;;;;;;28.40;59.60;;;;;;5031869;28;19940;-96
2022/08/30 10:20:35;;;;;;;;;;;28.50;60.50;;;;;;5032178;28;19961;-96
2022/08/30 10:23:05;;;;;;;;;;;28.70;58.40;;;;;;5031478;28;19948;-96
2022/08/30 10:25:37;;;;;;;;;;;28.80;58.90;;;;;;5031456;28;19988;-96
2022/08/30 10:28:06;;;;;;;;;;;28.80;56.00;;;;;;5031892;28;19941;-96
2022/08/30 10:30:35;;;;;;;;;;;29.00;57.80;;;;;;5031763;28;19944;-96
2022/08/30 10:33:05;;;;;;;;;;;29.10;54.90;;;;;;5031754;28;19946;-96
2022/08/30 10:36:03;;;;;;;;;;;29.10;56.20;;;;;;5031751;28;19944;-96
2022/08/30 10:38:31;;;;;;;;;;;29.30;56.90;;;;;;5064947;28;19948;-96
2022/08/30 10:41:20;;;;;;;;;;;29.60;56.60;;;;;;5031928;28;19958;-96
2022/08/30 10:44:04;;;;;;;;;;;29.80;54.60;;;;;;5059202;28;19954;-96
2022/08/30 10:46:52;;;;;;;;;;;30.10;53.50;;;;;;5031488;28;19941;-96
2022/08/30 10:49:20;;;;;;;;;;;30.20;53.20;;;;;;5031252;27;19945;-96
2022/08/30 10:51:48;;;;;;;;;;;30.40;53.50;;;;;;5031409;28;19967;-96
2022/08/30 10:54:17;;;;;;;;;;;30.60;51.30;;;;;;5031144;28;19998;-96
2022/08/30 10:56:44;;;;;;;;;;;30.70;50.60;;;;;;5031944;28;19953;-96
2022/08/30 10:59:10;;;;;;;;;;;30.80;50.90;;;;;;5031275;28;19962;-96
2022/08/30 11:01:51;;;;;;;;;;;30.80;50.60;;;;;;5032147;28;19944;-96
2022/08/30 11:04:17;;;;;;;;;;;31.00;49.60;;;;;;5029811;28;19943;-96
2022/08/30 11:07:04;;;;;;;;;;;31.10;50.10;;;;;;5031479;28;19945;-96
2022/08/30 11:09:33;;;;;;;;;;;31.30;48.20;;;;;;5040331;28;19977;-96
2022/08/30 11:12:15;;;;;;;;;;;31.50;49.00;;;;;;5031472;28;19935;-96
2022/08/30 11:14:42;;;;;;;;;;;31.40;48.70;;;;;;5031101;28;20358;-96
2022/08/30 11:17:22;;;;;;;;;;;31.20;51.00;;;;;;5029631;28;19946;-96
2022/08/30 11:19:48;;;;;;;;;;;31.40;50.40;;;;;;5030513;28;19962;-96
2022/08/30 11:22:25;;;;;;;;;;;31.60;49.00;;;;;;5031383;28;19950;-96
2022/08/30 11:24:57;;;;;;;;;;;31.80;49.00;;;;;;5030438;28;20024;-96
2022/08/30 11:27:41;;;;;;;;;;;32.10;48.70;;;;;;5031848;28;19945;-96
2022/08/30 11:30:24;;;;;;;;;;;32.30;47.60;;;;;;5031131;28;19963;-96
2022/08/30 11:32:58;;;;;;;;;;;32.20;46.30;;;;;;5031680;28;20398;-96
2022/08/30 11:35:37;;;;;;;;;;;32.60;49.00;;;;;;5031726;28;19944;-96
2022/08/30 11:38:12;;;;;;;;;;;32.70;46.00;;;;;;5032846;28;20301;-96
2022/08/30 11:40:47;;;;;;;;;;;33.20;43.80;;;;;;5031722;28;20014;-96
2022/08/30 11:43:31;;;;;;;;;;;33.00;45.10;;;;;;5030996;28;19970;-96
2022/08/30 11:46:15;;;;;;;;;;;32.60;45.30;;;;;;5031576;28;19996;-96
2022/08/30 11:49:04;;;;;;;;;;;32.20;45.90;;;;;;5033865;28;20022;-96
2022/08/30 11:51:38;;;;;;;;;;;31.30;47.20;;;;;;5040938;28;19985;-96
2022/08/30 11:54:20;;;;;;;;;;;31.30;48.40;;;;;;5034528;28;19953;-96
2022/08/30 11:56:46;;;;;;;;;;;31.60;48.40;;;;;;5035132;28;19941;-96
2022/08/30 11:59:21;;;;;;;;;;;31.90;46.40;;;;;;5034966;28;19947;-96
2022/08/30 12:01:47;;;;;;;;;;;32.30;46.50;;;;;;5033975;28;19975;-96
2022/08/30 12:04:16;;;;;;;;;;;32.40;44.90;;;;;;5035199;28;19944;-96
2022/08/30 12:06:41;;;;;;;;;;;32.40;45.10;;;;;;5035001;28;20461;-96
2022/08/30 12:09:08;;;;;;;;;;;32.60;44.80;;;;;;5033118;28;19990;-96
2022/08/30 12:11:34;;;;;;;;;;;32.60;44.60;;;;;;5034130;28;20306;-96
2022/08/30 12:14:00;;;;;;;;;;;32.20;44.40;;;;;;5034335;28;19937;-96
2022/08/30 12:16:29;;;;;;;;;;;31.80;45.30;;;;;;5034975;28;19942;-96
2022/08/30 12:19:05;;;;;;;;;;;32.10;45.10;;;;;;5034335;28;20468;-96
2022/08/30 12:21:33;;;;;;;;;;;32.40;45.40;;;;;;5033357;28;19983;-96
2022/08/30 12:24:03;;;;;;;;;;;32.70;43.10;;;;;;5033734;28;19947;-96
2022/08/30 12:26:33;;;;;;;;;;;32.60;43.50;;;;;;5033866;28;19962;-96
2022/08/30 12:29:19;;;;;;;;;;;32.60;42.80;;;;;;5034862;28;19946;-96
2022/08/30 12:31:51;;;;;;;;;;;32.80;43.70;;;;;;5033521;28;19961;-96
2022/08/30 12:34:19;;;;;;;;;;;32.70;44.50;;;;;;5033660;28;19987;-96
2022/08/30 12:36:51;;;;;;;;;;;33.10;42.20;;;;;;5032376;28;19960;-96
2022/08/30 12:39:28;;;;;;;;;;;33.10;41.30;;;;;;5033542;28;19949;-96
2022/08/30 12:42:10;;;;;;;;;;;33.40;42.10;;;;;;5033905;28;20189;-96
2022/08/30 12:44:37;;;;;;;;;;;33.80;41.20;;;;;;5032301;28;20083;-96
2022/08/30 12:47:04;;;;;;;;;;;34.10;41.50;;;;;;5033434;28;20083;-96
2022/08/30 12:49:33;;;;;;;;;;;34.00;42.00;;;;;;5033822;28;19965;-96
2022/08/30 12:52:15;;;;;;;;;;;34.00;44.10;;;;;;5033467;28;19948;-96
2022/08/30 12:54:41;;;;;;;;;;;34.20;42.60;;;;;;5034250;28;19989;-96
2022/08/30 12:57:06;;;;;;;;;;;34.10;41.80;;;;;;5033507;28;19989;-96
2022/08/30 12:59:50;;;;;;;;;;;34.00;42.10;;;;;;5033129;28;20487;-96
2022/08/30 13:02:23;;;;;;;;;;;33.50;42.20;;;;;;5034286;28;19944;-96
2022/08/30 13:04:50;;;;;;;;;;;32.50;43.80;;;;;;5032772;28;19954;-96
2022/08/30 13:07:34;;;;;;;;;;;32.10;45.40;;;;;;5034732;28;19945;-96
2022/08/30 13:10:15;;;;;;;;;;;31.80;46.60;;;;;;5034448;28;19969;-96
2022/08/30 13:12:56;;;;;;;;;;;31.70;47.10;;;;;;5043125;28;20427;-96
2022/08/30 13:15:43;;;;;;;;;;;31.80;46.90;;;;;;5045207;28;19943;-96
2022/08/30 13:18:26;;;;;;;;;;;32.10;47.80;;;;;;5046958;28;19941;-96
2022/08/30 13:21:10;;;;;;;;;;;32.70;45.40;;;;;;5046138;28;20002;-96
2022/08/30 13:23:36;;;;;;;;;;;33.20;44.00;;;;;;5043028;28;20019;-96
2022/08/30 13:26:05;;;;;;;;;;;32.90;44.10;;;;;;5041119;28;19951;-96
2022/08/30 13:28:46;;;;;;;;;;;32.50;44.40;;;;;;5042724;28;19945;-96
2022/08/30 13:31:14;;;;;;;;;;;32.60;45.60;;;;;;5042047;28;20002;-96
2022/08/30 13:33:40;;;;;;;;;;;32.50;45.60;;;;;;5041961;28;19938;-96
2022/08/30 13:36:11;;;;;;;;;;;32.60;44.90;;;;;;5041631;28;20454;-96
2022/08/30 13:38:44;;;;;;;;;;;32.80;45.70;;;;;;5043152;28;19942;-96
2022/08/30 13:41:13;;;;;;;;;;;33.10;44.70;;;;;;5047183;28;19946;-96
2022/08/30 13:43:42;;;;;;;;;;;33.20;44.30;;;;;;5050028;27;19978;-96
2022/08/30 13:46:11;;;;;;;;;;;33.10;46.00;;;;;;5049192;28;20003;-96
2022/08/30 13:48:37;;;;;;;;;;;33.20;45.40;;;;;;5046939;28;19944;-96
2022/08/30 13:51:03;;;;;;;;;;;33.20;45.70;;;;;;5044130;28;19959;-96
2022/08/30 13:53:29;;;;;;;;;;;33.20;46.80;;;;;;5045130;28;19940;-96
2022/08/30 13:55:55;;;;;;;;;;;33.70;44.00;;;;;;5047387;28;20150;-96
2022/08/30 13:58:27;;;;;;;;;;;33.90;43.30;;;;;;5045024;28;19965;-96
2022/08/30 14:00:55;;;;;;;;;;;33.10;43.60;;;;;;5046548;28;19993;-96
2022/08/30 14:03:21;;;;;;;;;;;32.60;44.50;;;;;;5047625;28;19945;-96
2022/08/30 14:05:50;;;;;;;;;;;32.30;45.50;;;;;;5046198;28;19950;-96
2022/08/30 14:08:23;;;;;;;;;;;32.50;45.40;;;;;;5046294;28;19936;-96
2022/08/30 14:10:49;;;;;;;;;;;32.60;45.10;;;;;;5044719;28;19972;-96
2022/08/30 14:13:15;;;;;;;;;;;32.60;45.00;;;;;;5045865;28;19941;-96
2022/08/30 14:15:41;;;;;;;;;;;32.30;46.20;;;;;;5045519;28;19945;-96
2022/08/30 14:19:22;;;;;;;;;;;32.20;46.30;;;;;;5036876;28;19998;-96
2022/08/30 14:21:48;;;;;;;;;;;32.70;45.90;;;;;;5038460;28;20411;-96
2022/08/30 14:26:44;;;;;;;;;;;32.80;46.30;;;;;;5145177;27;20015;-96
2022/08/30 14:29:11;;;;;;;;;;;33.00;44.70;;;;;;5121650;28;20003;-96
2022/08/30 14:31:37;;;;;;;;;;;33.10;47.40;;;;;;5147388;28;19995;-96
2022/08/30 14:34:04;;;;;;;;;;;33.60;44.30;;;;;;5149231;28;19942;-96
2022/08/30 14:36:33;;;;;;;;;;;34.00;43.40;;;;;;5141515;28;20529;-96